createdAt,value
2023-05-16T19:31:49.136Z,99729.63
2023-05-16T19:34:21.483Z,99729.72
2023-05-16T19:36:50.776Z,99728.09
2023-05-16T19:39:19.126Z,99741.06
2023-05-16T19:41:51.692Z,99732.91
2023-05-16T19:44:21.016Z,99731.22
2023-05-16T19:46:51.430Z,99726.06
2023-05-16T19:49:20.396Z,99737.50
2023-05-16T19:51:49.167Z,99732.69
2023-05-16T19:54:17.659Z,99734.09
2023-05-16T19:56:46.136Z,99725.44
2023-05-16T19:59:14.966Z,99730.47
2023-05-16T20:01:44.684Z,99717.50
2023-05-16T20:04:15.008Z,99719.59
2023-05-16T20:06:46.168Z,99720.13
2023-05-16T20:09:14.847Z,99721.34
2023-05-16T20:11:43.899Z,99720.84
2023-05-16T20:14:12.890Z,99723.72
2023-05-16T20:16:41.884Z,99718.56
2023-05-16T20:19:10.858Z,99715.38
2023-05-16T20:21:40.563Z,99722.66
2023-05-16T20:24:09.245Z,99724.16
2023-05-16T20:26:38.102Z,99716.47
2023-05-16T20:29:07.291Z,99722.34
2023-05-16T20:31:35.754Z,99730.59
2023-05-16T20:34:04.727Z,99736.34
2023-05-16T20:36:33.503Z,99736.28
2023-05-16T20:39:04.150Z,99733.66
2023-05-16T20:41:32.752Z,99747.50
2023-05-16T20:44:02.517Z,99747.72
2023-05-16T20:46:31.042Z,99751.38
2023-05-16T20:48:59.754Z,99751.00
2023-05-16T20:51:28.366Z,99748.06
2023-05-16T20:53:57.235Z,99746.19
2023-05-16T20:56:27.392Z,99751.38
2023-05-16T20:58:56.020Z,99749.38
2023-05-16T21:01:24.720Z,99749.78
2023-05-16T21:03:53.382Z,99750.44
2023-05-16T21:06:22.083Z,99738.38
2023-05-16T21:08:50.303Z,99751.47
2023-05-16T21:11:18.607Z,99750.75
2023-05-16T21:13:48.983Z,99740.47
2023-05-16T21:16:17.489Z,99742.84
2023-05-16T21:18:46.043Z,99747.50
2023-05-16T21:21:15.092Z,99747.06
2023-05-16T21:23:43.730Z,99747.16
2023-05-16T21:26:12.144Z,99747.03
2023-05-16T21:28:53.933Z,99746.97
2023-05-16T21:31:25.054Z,99742.84
2023-05-16T21:33:53.627Z,99741.38
2023-05-16T21:36:22.587Z,99742.59
2023-05-16T21:38:51.269Z,99732.72
2023-05-16T21:41:23.468Z,99746.66
2023-05-16T21:43:51.918Z,99738.66
2023-05-16T21:46:21.138Z,99744.00
2023-05-16T21:48:51.323Z,99735.22
2023-05-16T21:51:20.021Z,99737.56
2023-05-16T21:53:48.487Z,99736.63
2023-05-16T21:56:17.911Z,99739.78
2023-05-16T21:58:46.349Z,99736.31
2023-05-16T22:01:15.234Z,99736.50
2023-05-16T22:03:44.836Z,99730.78
2023-05-16T22:06:15.490Z,99724.44
2023-05-16T22:08:44.326Z,99730.16
2023-05-16T22:11:13.391Z,99719.59
2023-05-16T22:13:42.104Z,99726.13
2023-05-16T22:16:11.213Z,99727.31
2023-05-16T22:18:41.100Z,99725.72
2023-05-16T22:21:09.831Z,99721.31
2023-05-16T22:23:41.482Z,99723.16
2023-05-16T22:26:10.489Z,99728.44
2023-05-16T22:28:38.931Z,99724.25
2023-05-16T22:31:07.531Z,99721.06
2023-05-16T22:33:36.401Z,99721.28
2023-05-16T22:36:05.269Z,99729.31
2023-05-16T22:38:34.859Z,99723.59
2023-05-16T22:41:05.043Z,99710.50
2023-05-16T22:43:33.483Z,99710.94
2023-05-16T22:46:03.257Z,99717.28
2023-05-16T22:48:32.415Z,99719.16
2023-05-16T22:51:02.257Z,99717.44
2023-05-16T22:53:30.965Z,99721.47
2023-05-16T22:55:59.842Z,99721.47
2023-05-16T22:58:29.866Z,99723.16
2023-05-16T23:00:59.330Z,99707.53
2023-05-16T23:03:28.200Z,99702.56
2023-05-16T23:05:57.278Z,99698.88
2023-05-16T23:08:25.858Z,99712.41
2023-05-16T23:10:54.769Z,99717.34
2023-05-16T23:13:23.465Z,99719.47
2023-05-16T23:15:53.303Z,99716.00
2023-05-16T23:18:21.897Z,99710.28
2023-05-16T23:20:50.617Z,99709.03
2023-05-16T23:23:18.988Z,99695.50
2023-05-16T23:25:52.093Z,99691.91
2023-05-16T23:28:20.695Z,99696.97
2023-05-16T23:30:49.015Z,99695.50
2023-05-16T23:33:19.131Z,99696.13
2023-05-16T23:35:47.854Z,99695.69
2023-05-16T23:38:16.336Z,99683.97
2023-05-16T23:40:44.747Z,99680.28
2023-05-16T23:43:13.191Z,99685.13
2023-05-16T23:45:41.707Z,99680.72
2023-05-16T23:48:10.270Z,99692.75
2023-05-16T23:50:40.250Z,99686.50
2023-05-16T23:53:08.691Z,99692.44
2023-05-16T23:55:37.005Z,99703.19
2023-05-16T23:58:05.541Z,99708.78
